createdAt,value
2018-05-23T00:01:28.860Z,19.60
2018-05-23T00:03:56.445Z,19.70
2018-05-23T00:06:24.140Z,19.90
2018-05-23T00:08:53.102Z,19.90
2018-05-23T00:11:20.691Z,19.90
2018-05-23T00:13:48.296Z,19.80
2018-05-23T00:16:16.789Z,19.40
2018-05-23T00:18:44.366Z,19.40
2018-05-23T00:21:11.948Z,19.50
2018-05-23T00:23:40.557Z,19.50
2018-05-23T00:26:09.545Z,19.50
2018-05-23T00:28:37.707Z,19.50
2018-05-23T00:31:05.470Z,19.50
2018-05-23T00:33:33.180Z,19.60
2018-05-23T00:36:00.862Z,19.50
2018-05-23T00:38:28.744Z,19.50
2018-05-23T00:40:56.363Z,19.40
2018-05-23T00:43:23.944Z,19.40
2018-05-23T00:45:51.486Z,19.30
2018-05-23T00:48:19.059Z,19.30
2018-05-23T00:50:47.412Z,19.40
2018-05-23T00:53:14.970Z,19.40
2018-05-23T00:55:42.553Z,19.40
2018-05-23T00:58:10.112Z,19.20
2018-05-23T01:00:37.660Z,19.00
2018-05-23T01:03:05.220Z,19.00
2018-05-23T01:05:32.756Z,19.00
2018-05-23T01:08:00.286Z,19.00
2018-05-23T01:10:27.879Z,19.00
2018-05-23T01:12:55.405Z,19.10
2018-05-23T01:15:23.073Z,19.10
2018-05-23T01:17:50.584Z,19.00
2018-05-23T01:20:18.221Z,19.00
2018-05-23T01:22:45.765Z,18.90
2018-05-23T01:25:14.045Z,18.80
2018-05-23T01:27:42.400Z,18.80
2018-05-23T01:30:09.919Z,18.80
2018-05-23T01:32:37.440Z,18.80
2018-05-23T01:35:05.810Z,18.80
2018-05-23T01:37:33.413Z,18.80
2018-05-23T01:40:01.038Z,18.90
2018-05-23T01:42:29.491Z,18.80
2018-05-23T01:44:57.139Z,18.70
2018-05-23T01:47:24.786Z,18.80
2018-05-23T01:49:52.343Z,18.80
2018-05-23T01:52:19.924Z,18.80
2018-05-23T01:54:47.444Z,18.70
2018-05-23T01:57:15.750Z,18.70
2018-05-23T01:59:43.477Z,18.60
2018-05-23T02:02:11.040Z,18.70
2018-05-23T02:04:39.336Z,18.70
2018-05-23T02:07:06.937Z,18.70
2018-05-23T02:09:34.632Z,18.70
2018-05-23T02:12:03.013Z,18.60
2018-05-23T02:14:30.603Z,18.60
2018-05-23T02:16:58.276Z,18.60
2018-05-23T02:19:25.892Z,18.50
2018-05-23T02:21:53.460Z,18.50
2018-05-23T02:24:21.005Z,18.40
2018-05-23T02:26:48.631Z,18.40
2018-05-23T02:29:16.165Z,18.30
2018-05-23T02:31:44.457Z,18.30
2018-05-23T02:34:12.046Z,18.20
2018-05-23T02:36:39.572Z,18.20
2018-05-23T02:39:07.201Z,18.10
2018-05-23T02:41:35.565Z,18.10
2018-05-23T02:44:03.246Z,18.00
2018-05-23T02:46:30.921Z,18.00
2018-05-23T02:48:58.535Z,18.00
2018-05-23T02:51:26.079Z,18.00
2018-05-23T02:53:54.396Z,17.90
2018-05-23T02:56:21.967Z,17.90
2018-05-23T02:58:49.528Z,17.90
2018-05-23T03:01:17.076Z,17.80
2018-05-23T03:03:44.736Z,17.80
2018-05-23T03:06:12.258Z,17.80
2018-05-23T03:08:39.849Z,17.80
2018-05-23T03:11:07.489Z,17.80
2018-05-23T03:13:35.046Z,17.70
2018-05-23T03:16:02.625Z,17.70
2018-05-23T03:18:30.205Z,17.60
2018-05-23T03:20:57.723Z,17.60
2018-05-23T03:23:25.231Z,17.50
2018-05-23T03:25:52.763Z,17.60
2018-05-23T03:28:20.390Z,17.60
2018-05-23T03:30:47.954Z,17.50
2018-05-23T03:33:15.541Z,17.50
2018-05-23T03:35:43.086Z,17.60
2018-05-23T03:38:10.600Z,17.50
2018-05-23T03:40:38.139Z,17.50
2018-05-23T03:43:05.723Z,17.50
2018-05-23T03:45:33.261Z,17.50
2018-05-23T03:48:00.871Z,17.50
2018-05-23T03:50:28.447Z,17.50
2018-05-23T03:52:56.081Z,17.40
2018-05-23T03:55:24.538Z,17.40
2018-05-23T03:57:52.897Z,17.40
2018-05-23T04:00:32.158Z,17.40
2018-05-23T04:03:12.193Z,17.50
2018-05-23T04:05:51.521Z,17.50
2018-05-23T04:08:19.212Z,17.40
2018-05-23T04:10:46.812Z,17.40
2018-05-23T04:13:14.379Z,17.30
2018-05-23T04:15:41.904Z,17.30
2018-05-23T04:18:10.307Z,17.50
2018-05-23T04:20:37.949Z,17.50
2018-05-23T04:23:06.371Z,17.60
2018-05-23T04:25:33.886Z,17.70
2018-05-23T04:28:01.466Z,17.70
2018-05-23T04:30:28.971Z,17.60
2018-05-23T04:32:56.533Z,17.50
2018-05-23T04:35:24.033Z,17.60
2018-05-23T04:37:51.644Z,17.60
2018-05-23T04:40:20.004Z,17.70
2018-05-23T04:42:47.673Z,17.70
2018-05-23T04:45:15.188Z,17.70
2018-05-23T04:47:44.479Z,17.70
2018-05-23T04:50:12.008Z,17.80
2018-05-23T04:52:39.525Z,17.70
2018-05-23T04:55:07.055Z,17.70
2018-05-23T04:57:34.740Z,17.90
2018-05-23T05:00:02.472Z,18.20
2018-05-23T05:02:30.166Z,18.40
2018-05-23T05:04:57.714Z,18.90
2018-05-23T05:07:26.118Z,19.00
2018-05-23T05:09:54.651Z,18.90
2018-05-23T05:12:25.876Z,18.90
2018-05-23T05:14:54.276Z,18.80
2018-05-23T05:17:22.825Z,18.60
2018-05-23T05:19:51.647Z,18.60
2018-05-23T05:22:19.439Z,18.60
2018-05-23T05:24:47.081Z,18.60
2018-05-23T05:27:14.639Z,18.60
2018-05-23T05:29:42.225Z,18.50
2018-05-23T05:32:10.184Z,18.50
2018-05-23T05:34:37.834Z,18.60
2018-05-23T05:37:05.412Z,18.60
2018-05-23T05:39:33.063Z,18.60
2018-05-23T05:42:00.672Z,18.80
2018-05-23T05:44:28.221Z,18.80
2018-05-23T05:46:55.939Z,18.90
2018-05-23T05:49:23.467Z,18.90
2018-05-23T05:51:51.034Z,18.80
2018-05-23T05:54:18.640Z,18.70
2018-05-23T05:56:46.927Z,18.70
2018-05-23T05:59:15.393Z,18.80
2018-05-23T06:01:43.725Z,18.80
2018-05-23T06:04:11.269Z,18.70
2018-05-23T06:06:38.810Z,18.80
2018-05-23T06:09:07.119Z,19.10
2018-05-23T06:11:34.728Z,19.10
2018-05-23T06:14:03.092Z,19.10
2018-05-23T06:16:30.659Z,19.10
2018-05-23T06:18:58.170Z,19.10
2018-05-23T06:21:25.727Z,19.20
2018-05-23T06:23:53.273Z,19.20
2018-05-23T06:26:20.887Z,19.40
2018-05-23T06:28:48.465Z,19.70
2018-05-23T06:31:16.108Z,19.80
2018-05-23T06:33:43.767Z,19.70
2018-05-23T06:36:11.301Z,19.90
2018-05-23T06:38:38.857Z,19.90
2018-05-23T06:41:06.389Z,19.90
2018-05-23T06:43:33.944Z,19.90
2018-05-23T06:46:02.986Z,20.00
2018-05-23T06:48:30.501Z,19.90
2018-05-23T06:50:58.796Z,20.10
2018-05-23T06:53:26.438Z,20.10
2018-05-23T06:55:54.756Z,20.30
2018-05-23T06:58:22.327Z,20.20
2018-05-23T07:00:49.877Z,20.50
2018-05-23T07:03:17.435Z,20.60
2018-05-23T07:05:45.027Z,20.90
2018-05-23T07:08:12.757Z,20.70
2018-05-23T07:10:40.331Z,20.80
2018-05-23T07:13:07.889Z,20.80
2018-05-23T07:15:35.443Z,20.80
2018-05-23T07:18:03.069Z,20.70
2018-05-23T07:20:30.534Z,20.80
2018-05-23T07:22:58.812Z,20.80
2018-05-23T07:25:27.115Z,20.90
2018-05-23T07:27:54.727Z,20.90
2018-05-23T07:30:22.366Z,20.90
2018-05-23T07:32:49.911Z,20.90
2018-05-23T07:35:17.441Z,20.90
2018-05-23T07:37:45.148Z,21.20
2018-05-23T07:40:12.772Z,21.10
2018-05-23T07:42:40.282Z,21.30
2018-05-23T07:45:07.877Z,21.30
2018-05-23T07:47:35.401Z,21.30
2018-05-23T07:50:03.011Z,21.40
2018-05-23T07:52:30.618Z,21.30
2018-05-23T07:54:58.173Z,21.40
2018-05-23T07:57:25.720Z,21.40
2018-05-23T07:59:53.274Z,21.60
2018-05-23T08:02:20.837Z,21.50
2018-05-23T08:04:48.461Z,21.50
2018-05-23T08:07:16.744Z,21.80
2018-05-23T08:09:44.331Z,21.80
2018-05-23T08:12:11.890Z,21.70
2018-05-23T08:14:40.047Z,21.80
2018-05-23T08:17:07.570Z,21.80
2018-05-23T08:19:35.102Z,22.00
2018-05-23T08:22:02.657Z,21.90
2018-05-23T08:24:30.227Z,22.00
2018-05-23T08:26:57.743Z,22.00
2018-05-23T08:29:25.374Z,22.00
2018-05-23T08:31:52.906Z,22.00
2018-05-23T08:34:20.595Z,22.30
2018-05-23T08:36:48.139Z,22.40
2018-05-23T08:39:15.691Z,22.40
2018-05-23T08:41:43.326Z,22.30
2018-05-23T08:44:10.891Z,22.60
2018-05-23T08:46:38.574Z,22.70
2018-05-23T08:49:06.110Z,22.80
2018-05-23T08:51:33.678Z,22.80
2018-05-23T08:54:01.250Z,22.60
2018-05-23T08:56:28.802Z,22.70
2018-05-23T08:58:56.382Z,22.80
2018-05-23T09:01:24.694Z,22.80
2018-05-23T09:03:53.002Z,23.00
2018-05-23T09:06:20.542Z,23.00
2018-05-23T09:08:48.151Z,23.10
2018-05-23T09:11:15.692Z,23.20
2018-05-23T09:13:43.284Z,23.30
2018-05-23T09:16:10.866Z,23.20
2018-05-23T09:18:39.183Z,23.20
2018-05-23T09:21:06.718Z,23.20
2018-05-23T09:23:34.240Z,23.30
2018-05-23T09:26:01.795Z,23.40
2018-05-23T09:28:29.302Z,23.50
2018-05-23T09:30:57.582Z,23.60
2018-05-23T09:33:26.063Z,23.60
2018-05-23T09:35:53.603Z,23.60
2018-05-23T09:38:22.004Z,23.90
2018-05-23T09:40:49.551Z,23.90
2018-05-23T09:43:17.156Z,23.90
2018-05-23T09:45:44.703Z,24.00
2018-05-23T09:48:12.294Z,24.00
2018-05-23T09:50:39.826Z,24.00
2018-05-23T09:53:07.405Z,23.90
2018-05-23T09:55:34.981Z,23.90
2018-05-23T09:58:02.609Z,24.00
2018-05-23T10:00:30.214Z,24.20
2018-05-23T10:02:57.752Z,24.30
2018-05-23T10:05:25.333Z,24.50
2018-05-23T10:07:52.893Z,24.80
2018-05-23T10:10:20.603Z,24.80
2018-05-23T10:12:48.135Z,25.20
2018-05-23T10:15:18.837Z,25.50
2018-05-23T10:17:46.365Z,25.50
2018-05-23T10:20:14.034Z,25.50
2018-05-23T10:22:41.721Z,25.60
2018-05-23T10:25:09.356Z,25.80
2018-05-23T10:27:36.903Z,25.70
2018-05-23T10:30:04.434Z,25.90
2018-05-23T10:32:32.854Z,26.30
2018-05-23T10:35:00.447Z,26.30
2018-05-23T10:37:27.977Z,27.40
2018-05-23T10:39:55.550Z,29.30
2018-05-23T10:42:23.097Z,30.90
2018-05-23T10:44:50.815Z,31.20
2018-05-23T10:47:18.414Z,32.80
2018-05-23T10:49:46.009Z,34.40
2018-05-23T10:52:13.598Z,35.10
2018-05-23T10:54:41.238Z,35.60
2018-05-23T10:57:09.675Z,36.50
2018-05-23T10:59:37.208Z,36.50
2018-05-23T11:02:04.738Z,38.00
2018-05-23T11:04:32.286Z,37.90
2018-05-23T11:06:59.835Z,38.30
2018-05-23T11:09:27.393Z,39.00
2018-05-23T11:11:54.927Z,37.50
2018-05-23T11:14:22.547Z,37.20
2018-05-23T11:16:50.067Z,37.70
2018-05-23T11:19:17.609Z,38.50
2018-05-23T11:21:45.120Z,39.60
2018-05-23T11:24:12.710Z,41.40
2018-05-23T11:26:40.422Z,42.10
2018-05-23T11:29:08.112Z,41.80
2018-05-23T11:31:35.807Z,42.00
2018-05-23T11:34:03.386Z,40.40
2018-05-23T11:36:31.236Z,41.50
2018-05-23T11:38:59.675Z,40.80
2018-05-23T11:41:27.207Z,40.70
2018-05-23T11:43:54.762Z,41.60
2018-05-23T11:46:22.294Z,41.90
2018-05-23T11:48:50.643Z,40.90
2018-05-23T11:51:18.177Z,40.80
2018-05-23T11:53:45.853Z,39.60
2018-05-23T11:56:13.426Z,39.50
2018-05-23T11:58:40.977Z,39.60
2018-05-23T12:01:08.536Z,40.20
2018-05-23T12:03:36.103Z,39.60
2018-05-23T12:06:03.700Z,40.50
2018-05-23T12:08:32.034Z,41.60
2018-05-23T12:11:00.469Z,41.10
2018-05-23T12:13:28.033Z,41.10
2018-05-23T12:15:55.692Z,40.40
2018-05-23T12:18:23.241Z,39.90
2018-05-23T12:20:50.771Z,38.90
2018-05-23T12:23:18.315Z,38.60
2018-05-23T12:25:45.934Z,38.30
2018-05-23T12:28:13.529Z,38.00
2018-05-23T12:30:41.063Z,37.60
2018-05-23T12:33:08.624Z,36.90
2018-05-23T12:35:36.939Z,36.20
2018-05-23T12:38:04.580Z,36.10
2018-05-23T12:40:32.192Z,35.30
2018-05-23T12:42:59.799Z,34.30
2018-05-23T12:45:27.322Z,33.70
2018-05-23T12:47:55.634Z,32.50
2018-05-23T12:50:23.214Z,32.40
2018-05-23T12:52:50.808Z,32.10
2018-05-23T12:55:18.420Z,31.80
2018-05-23T12:57:45.962Z,31.50
2018-05-23T13:00:13.525Z,31.50
2018-05-23T13:02:41.094Z,31.30
2018-05-23T13:05:08.690Z,31.30
2018-05-23T13:07:36.272Z,30.80
2018-05-23T13:10:03.797Z,30.50
2018-05-23T13:12:31.508Z,30.30
2018-05-23T13:14:59.793Z,29.90
2018-05-23T13:17:27.343Z,29.80
2018-05-23T13:19:55.647Z,29.60
2018-05-23T13:22:23.278Z,29.60
2018-05-23T13:24:50.774Z,29.70
2018-05-23T13:27:18.303Z,29.50
2018-05-23T13:29:46.659Z,29.40
2018-05-23T13:32:14.264Z,29.30
2018-05-23T13:34:42.704Z,29.40
2018-05-23T13:37:10.233Z,29.40
2018-05-23T13:39:37.774Z,29.50
2018-05-23T13:42:05.388Z,29.30
2018-05-23T13:44:32.928Z,29.30
2018-05-23T13:47:00.461Z,29.40
2018-05-23T13:49:28.004Z,29.50
2018-05-23T13:51:55.552Z,29.40
2018-05-23T13:54:23.879Z,29.50
2018-05-23T13:56:51.481Z,29.50
2018-05-23T13:59:19.044Z,29.40
2018-05-23T14:01:47.344Z,29.60
2018-05-23T14:04:15.026Z,29.60
2018-05-23T14:06:42.584Z,29.90
2018-05-23T14:09:10.101Z,29.60
2018-05-23T14:11:38.387Z,28.90
2018-05-23T14:14:06.764Z,28.90
2018-05-23T14:16:34.357Z,28.80
2018-05-23T14:19:02.014Z,28.90
2018-05-23T14:21:29.600Z,28.90
2018-05-23T14:23:57.163Z,29.00
2018-05-23T14:26:24.692Z,28.90
2018-05-23T14:28:52.241Z,28.90
2018-05-23T14:31:20.551Z,29.00
2018-05-23T14:33:48.109Z,28.90
2018-05-23T14:36:15.614Z,29.00
2018-05-23T14:38:43.262Z,28.90
2018-05-23T14:41:10.818Z,28.90
2018-05-23T14:43:38.434Z,29.00
2018-05-23T14:46:05.986Z,28.90
2018-05-23T14:48:34.327Z,28.90
2018-05-23T14:51:01.884Z,28.90
2018-05-23T14:53:29.494Z,29.00
2018-05-23T14:55:57.122Z,28.80
2018-05-23T14:58:25.452Z,28.90
2018-05-23T15:00:53.053Z,28.90
2018-05-23T15:03:20.690Z,28.70
2018-05-23T15:05:48.251Z,28.70
2018-05-23T15:08:16.001Z,28.40
2018-05-23T15:10:43.852Z,28.60
2018-05-23T15:13:11.595Z,28.60
2018-05-23T15:15:39.184Z,28.40
2018-05-23T15:18:06.691Z,28.50
2018-05-23T15:20:34.204Z,28.60
2018-05-23T15:23:01.778Z,28.70
2018-05-23T15:25:29.525Z,28.90
2018-05-23T15:27:57.057Z,29.10
2018-05-23T15:30:25.402Z,28.90
2018-05-23T15:32:53.008Z,28.90
2018-05-23T15:35:21.523Z,29.30
2018-05-23T15:37:49.293Z,29.30
2018-05-23T15:40:17.075Z,29.70
2018-05-23T15:42:44.729Z,30.10
2018-05-23T15:45:12.472Z,30.30
2018-05-23T15:47:40.762Z,30.20
2018-05-23T15:50:08.300Z,29.90
2018-05-23T15:52:36.003Z,29.50
2018-05-23T15:55:03.623Z,29.60
2018-05-23T15:57:31.204Z,29.70
2018-05-23T15:59:58.762Z,29.60
2018-05-23T16:02:26.528Z,29.00
2018-05-23T16:04:54.084Z,29.00
2018-05-23T16:07:21.754Z,28.90
2018-05-23T16:09:49.308Z,28.80
2018-05-23T16:12:16.825Z,28.80
2018-05-23T16:14:44.425Z,28.90
2018-05-23T16:17:12.732Z,28.70
2018-05-23T16:19:40.388Z,28.70
2018-05-23T16:22:07.983Z,28.60
2018-05-23T16:24:35.716Z,28.30
2018-05-23T16:27:03.372Z,28.00
2018-05-23T16:29:30.962Z,27.70
2018-05-23T16:31:58.518Z,27.60
2018-05-23T16:34:26.273Z,27.70
2018-05-23T16:36:55.177Z,27.80
2018-05-23T16:39:22.778Z,28.00
2018-05-23T16:41:50.317Z,27.80
2018-05-23T16:44:18.659Z,28.50
2018-05-23T16:46:46.518Z,28.40
2018-05-23T16:49:14.269Z,28.30
2018-05-23T16:51:42.097Z,28.30
2018-05-23T16:54:09.622Z,28.20
2018-05-23T16:56:38.224Z,28.10
2018-05-23T16:59:07.849Z,27.80
2018-05-23T17:01:36.336Z,27.50
2018-05-23T17:04:04.740Z,26.90
2018-05-23T17:06:32.746Z,26.90
2018-05-23T17:09:00.600Z,26.70
2018-05-23T17:11:28.200Z,26.70
2018-05-23T17:13:55.797Z,26.70
2018-05-23T17:16:23.319Z,26.80
2018-05-23T17:18:50.870Z,26.60
2018-05-23T17:21:18.451Z,26.50
2018-05-23T17:23:47.165Z,26.30
2018-05-23T17:26:14.930Z,26.30
2018-05-23T17:28:42.639Z,26.30
2018-05-23T17:31:10.208Z,26.30
2018-05-23T17:33:37.977Z,26.30
2018-05-23T17:36:05.596Z,26.20
2018-05-23T17:38:35.360Z,26.10
2018-05-23T17:41:05.572Z,26.00
2018-05-23T17:43:33.300Z,26.00
2018-05-23T17:46:02.227Z,25.90
2018-05-23T17:48:32.316Z,25.90
2018-05-23T17:51:00.086Z,25.90
2018-05-23T17:53:27.873Z,25.60
2018-05-23T17:55:55.524Z,25.60
2018-05-23T17:58:23.124Z,25.70
2018-05-23T18:00:51.519Z,25.70
2018-05-23T18:03:19.133Z,25.80
2018-05-23T18:05:46.843Z,25.70
2018-05-23T18:08:14.394Z,25.80
2018-05-23T18:10:41.932Z,25.60
2018-05-23T18:13:09.699Z,25.60
2018-05-23T18:15:37.267Z,25.40
2018-05-23T18:18:06.222Z,25.20
2018-05-23T18:20:34.583Z,25.20
2018-05-23T18:23:02.422Z,25.10
2018-05-23T18:25:30.019Z,25.00
2018-05-23T18:27:58.823Z,25.10
2018-05-23T18:30:26.363Z,25.00
2018-05-23T18:32:55.571Z,25.00
2018-05-23T18:35:24.168Z,24.80
2018-05-23T18:37:52.458Z,24.70
2018-05-23T18:40:20.146Z,24.70
2018-05-23T18:42:47.791Z,24.70
2018-05-23T18:45:16.867Z,24.70
2018-05-23T18:47:44.662Z,24.70
2018-05-23T18:50:14.028Z,24.50
2018-05-23T18:52:41.746Z,24.50
2018-05-23T18:55:10.055Z,24.50
2018-05-23T18:57:37.731Z,24.50
2018-05-23T19:00:05.474Z,24.50
2018-05-23T19:02:33.414Z,24.30
2018-05-23T19:05:01.121Z,24.10
2018-05-23T19:07:28.713Z,24.00
2018-05-23T19:09:56.487Z,23.80
2018-05-23T19:12:24.957Z,23.70
2018-05-23T19:14:52.669Z,23.70
2018-05-23T19:17:20.514Z,23.90
2018-05-23T19:19:49.695Z,23.50
2018-05-23T19:22:17.944Z,23.40
2018-05-23T19:24:45.545Z,23.40
2018-05-23T19:27:13.867Z,23.10
2018-05-23T19:29:41.496Z,23.10
2018-05-23T19:32:09.909Z,22.90
2018-05-23T19:34:37.896Z,22.90
2018-05-23T19:37:05.731Z,22.80
2018-05-23T19:39:33.698Z,22.80
2018-05-23T19:42:01.370Z,22.70
2018-05-23T19:44:29.022Z,22.70
2018-05-23T19:46:56.702Z,22.60
2018-05-23T19:49:24.523Z,22.50
2018-05-23T19:51:52.115Z,22.40
2018-05-23T19:54:19.761Z,22.40
2018-05-23T19:56:48.172Z,22.10
2018-05-23T19:59:16.311Z,22.00
2018-05-23T20:01:44.888Z,22.00
2018-05-23T20:04:13.213Z,22.00
2018-05-23T20:06:40.975Z,22.00
2018-05-23T20:09:08.609Z,22.00
2018-05-23T20:11:37.935Z,21.80
2018-05-23T20:14:05.646Z,21.80
2018-05-23T20:16:33.336Z,21.80
2018-05-23T20:19:02.218Z,21.50
2018-05-23T20:21:29.836Z,21.50
2018-05-23T20:23:57.465Z,21.50
2018-05-23T20:26:25.071Z,21.50
2018-05-23T20:28:53.461Z,21.30
2018-05-23T20:31:21.032Z,21.30
2018-05-23T20:33:48.639Z,21.40
2018-05-23T20:36:16.652Z,21.30
2018-05-23T20:38:44.262Z,21.40
2018-05-23T20:41:11.939Z,21.40
2018-05-23T20:43:39.551Z,21.40
2018-05-23T20:46:07.980Z,21.30
2018-05-23T20:48:35.719Z,21.30
2018-05-23T20:51:04.144Z,21.20
2018-05-23T20:53:31.764Z,21.20
2018-05-23T20:56:00.077Z,21.20
2018-05-23T20:58:27.723Z,21.30
2018-05-23T21:00:55.350Z,21.20
2018-05-23T21:03:23.780Z,21.10
2018-05-23T21:05:51.369Z,21.00
2018-05-23T21:08:20.853Z,21.00
2018-05-23T21:10:50.356Z,20.90
2018-05-23T21:13:19.321Z,20.90
2018-05-23T21:15:47.985Z,20.80
2018-05-23T21:18:15.677Z,20.70
2018-05-23T21:20:43.247Z,20.70
2018-05-23T21:23:10.874Z,20.70
2018-05-23T21:25:38.680Z,20.70
2018-05-23T21:28:06.447Z,20.60
2018-05-23T21:30:34.069Z,20.70
2018-05-23T21:33:01.635Z,20.80
2018-05-23T21:35:30.666Z,20.70
2018-05-23T21:37:58.273Z,20.80
2018-05-23T21:40:25.893Z,20.60
2018-05-23T21:42:53.494Z,20.60
2018-05-23T21:45:21.134Z,20.60
2018-05-23T21:47:48.728Z,20.50
2018-05-23T21:50:16.385Z,20.50
2018-05-23T21:52:44.067Z,20.40
2018-05-23T21:55:11.958Z,20.40
2018-05-23T21:57:39.753Z,20.40
2018-05-23T22:00:07.500Z,20.40
2018-05-23T22:02:35.181Z,20.50
2018-05-23T22:05:02.855Z,20.40
2018-05-23T22:07:30.496Z,20.40
2018-05-23T22:09:58.267Z,20.40
2018-05-23T22:12:26.112Z,20.40
2018-05-23T22:14:53.941Z,20.40
2018-05-23T22:17:22.449Z,20.40
2018-05-23T22:19:50.351Z,20.40
2018-05-23T22:22:17.931Z,20.30
2018-05-23T22:24:45.547Z,20.30
2018-05-23T22:27:13.090Z,20.30
2018-05-23T22:29:40.624Z,20.20
2018-05-23T22:32:08.210Z,20.10
2018-05-23T22:34:35.909Z,20.20
2018-05-23T22:37:03.439Z,20.20
2018-05-23T22:39:31.114Z,20.20
2018-05-23T22:41:58.776Z,20.20
2018-05-23T22:44:26.499Z,20.20
2018-05-23T22:46:54.226Z,20.20
2018-05-23T22:49:21.794Z,20.30
2018-05-23T22:51:50.154Z,20.40
2018-05-23T22:54:17.714Z,20.40
2018-05-23T22:56:45.335Z,20.40
2018-05-23T22:59:12.928Z,20.40
2018-05-23T23:01:40.598Z,20.40
2018-05-23T23:04:08.162Z,20.30
2018-05-23T23:06:35.770Z,20.30
2018-05-23T23:09:03.311Z,20.30
2018-05-23T23:11:30.906Z,20.20
2018-05-23T23:13:58.497Z,20.20
2018-05-23T23:16:26.097Z,20.10
2018-05-23T23:18:53.671Z,20.10
2018-05-23T23:21:21.275Z,20.00
2018-05-23T23:23:48.954Z,20.00
2018-05-23T23:26:16.565Z,20.00
2018-05-23T23:28:44.934Z,20.10
2018-05-23T23:31:12.531Z,20.00
2018-05-23T23:33:40.247Z,20.10
2018-05-23T23:36:07.791Z,20.10
2018-05-23T23:38:35.441Z,20.10
2018-05-23T23:41:02.938Z,20.20
2018-05-23T23:43:30.473Z,20.20
2018-05-23T23:45:57.996Z,20.20
2018-05-23T23:48:25.629Z,20.20
2018-05-23T23:50:53.278Z,20.20
2018-05-23T23:53:21.682Z,20.20
2018-05-23T23:55:50.095Z,20.20
2018-05-23T23:58:17.671Z,20.20
